Time;durP1;ratioP1;P1;durP2;ratioP2;P2;SDS_P1;SDS_P2;PMS_P1;PMS_P2;Temp;Humidity;BMP_temperature;BMP_pressure;BME280_temperature;BME280_humidity;BME280_pressure;Samples;Min_cycle;Max_cycle;Signal;HPM_P1;HPM_P2
2022/08/03 00:01:28;;;;;;;;;;;;;;;21.59;60.37;99810.69;4456637;32;20003;-89
2022/08/03 00:03:53;;;;;;;;;;;;;;;21.70;60.38;99810.69;4468719;32;27797;-90
2022/08/03 00:06:18;;;;;;;;;;;;;;;21.75;60.38;99808.53;4455791;32;30706;-89
2022/08/03 00:08:43;;;;;;;;;;;;;;;21.60;60.37;99815.03;4456370;32;20894;-90
2022/08/03 00:11:09;;;;;;;;;;;;;;;21.57;60.37;99813.47;4456715;32;20030;-91
2022/08/03 00:13:34;;;;;;;;;;;;;;;21.49;60.37;99822.94;4456164;32;20042;-90
2022/08/03 00:15:59;;;;;;;;;;;;;;;21.47;60.36;99814.25;4457083;32;20283;-90
2022/08/03 00:18:25;;;;;;;;;;;;;;;21.29;60.36;99824.44;4455513;32;20016;-91
2022/08/03 00:20:52;;;;;;;;;;;;;;;21.39;60.37;99822.81;4456554;32;19999;-90
2022/08/03 00:23:18;;;;;;;;;;;;;;;21.24;60.36;99823.94;4442983;32;20031;-90
2022/08/03 00:25:43;;;;;;;;;;;;;;;21.12;60.35;99823.88;4455656;32;20258;-91
2022/08/03 00:28:08;;;;;;;;;;;;;;;21.14;60.34;99827.25;4456393;32;19997;-90
2022/08/03 00:30:33;;;;;;;;;;;;;;;21.19;60.35;99823.41;4457496;32;20023;-91
2022/08/03 00:32:59;;;;;;;;;;;;;;;20.93;60.33;99820.91;4458083;32;19981;-91
2022/08/03 00:35:24;;;;;;;;;;;;;;;21.01;60.35;99822.97;4472503;32;19967;-91
2022/08/03 00:37:49;;;;;;;;;;;;;;;20.96;60.34;99825.97;4459254;32;19999;-91
2022/08/03 00:40:15;;;;;;;;;;;;;;;21.04;60.34;99825.37;4465224;32;19984;-90
2022/08/03 00:42:50;;;;;;;;;;;;;;;20.93;60.33;99820.06;4452921;32;19981;-91
2022/08/03 00:45:16;;;;;;;;;;;;;;;20.99;60.34;99820.44;4445761;32;20023;-91
2022/08/03 00:47:42;;;;;;;;;;;;;;;20.99;60.34;99823.09;4456315;32;20325;-90
2022/08/03 00:50:07;;;;;;;;;;;;;;;21.02;60.34;99825.50;4470300;32;20317;-88
2022/08/03 00:52:33;;;;;;;;;;;;;;;20.93;60.33;99828.00;4442820;32;19999;-88
2022/08/03 00:54:59;;;;;;;;;;;;;;;20.99;60.34;99831.03;4455687;32;19988;-88
2022/08/03 00:57:24;;;;;;;;;;;;;;;21.02;60.34;99819.38;4442842;32;19989;-87
2022/08/03 00:59:49;;;;;;;;;;;;;;;20.88;60.34;99830.16;4455160;32;27798;-87
2022/08/03 01:02:15;;;;;;;;;;;;;;;20.83;60.32;99826.03;4468007;32;25665;-87
2022/08/03 01:04:40;;;;;;;;;;;;;;;20.65;60.32;99826.53;4455461;32;20219;-87
2022/08/03 01:07:08;;;;;;;;;;;;;;;20.58;60.32;99827.91;4469843;32;20348;-87
2022/08/03 01:09:49;;;;;;;;;;;;;;;20.74;60.33;99826.69;4469818;32;20000;-87
2022/08/03 01:12:18;;;;;;;;;;;;;;;20.74;60.32;99828.50;4455357;32;20356;-87
2022/08/03 01:15:06;;;;;;;;;;;;;;;20.63;60.33;99829.28;4442592;32;20032;-87
2022/08/03 01:17:33;;;;;;;;;;;;;;;20.60;60.31;99829.50;4455250;32;19988;-87
2022/08/03 01:19:59;;;;;;;;;;;;;;;20.61;60.32;99830.34;4455222;32;20382;-87
2022/08/03 01:22:36;;;;;;;;;;;;;;;20.46;60.32;99822.56;4442368;32;19999;-86
2022/08/03 01:25:05;;;;;;;;;;;;;;;20.48;60.31;99831.22;4455519;32;20282;-87
2022/08/03 01:27:37;;;;;;;;;;;;;;;20.54;60.32;99822.84;4467991;32;20012;-87
2022/08/03 01:30:12;;;;;;;;;;;;;;;20.64;60.32;99824.84;4455536;32;19993;-87
2022/08/03 01:32:53;;;;;;;;;;;;;;;20.51;60.31;99831.00;4442188;32;19981;-87
2022/08/03 01:35:31;;;;;;;;;;;;;;;20.41;60.31;99827.34;4455398;32;20392;-87
2022/08/03 01:37:57;;;;;;;;;;;;;;;20.49;60.32;99832.91;4457040;32;20006;-87
2022/08/03 01:40:23;;;;;;;;;;;;;;;20.57;60.32;99829.69;4457344;32;20004;-87
2022/08/03 01:42:49;;;;;;;;;;;;;;;20.62;60.32;99832.03;4444450;32;20681;-88
2022/08/03 01:45:16;;;;;;;;;;;;;;;20.53;60.31;99828.25;4457784;32;19965;-88
2022/08/03 01:47:42;;;;;;;;;;;;;;;20.48;60.31;99825.94;4457624;32;20047;-88
2022/08/03 01:50:08;;;;;;;;;;;;;;;20.43;60.31;99825.41;4457449;32;20333;-88
2022/08/03 01:52:33;;;;;;;;;;;;;;;20.44;60.31;99828.91;4457661;32;19973;-88
2022/08/03 01:54:59;;;;;;;;;;;;;;;20.40;60.31;99827.41;4457564;32;19968;-87
2022/08/03 01:57:24;;;;;;;;;;;;;;;20.40;60.31;99827.41;4457412;32;19980;-87
2022/08/03 01:59:50;;;;;;;;;;;;;;;20.27;60.30;99823.94;4457625;32;19993;-88
2022/08/03 02:02:16;;;;;;;;;;;;;;;20.30;60.30;99831.66;4457457;32;20341;-88
2022/08/03 02:04:41;;;;;;;;;;;;;;;20.36;60.30;99831.22;4457697;32;19973;-88
2022/08/03 02:07:07;;;;;;;;;;;;;;;20.37;60.30;99825.00;4471999;32;19977;-88
2022/08/03 02:09:33;;;;;;;;;;;;;;;20.21;60.29;99827.88;4458339;32;20313;-87
2022/08/03 02:11:59;;;;;;;;;;;;;;;20.22;60.29;99829.56;4458563;32;19969;-88
2022/08/03 02:14:25;;;;;;;;;;;;;;;20.08;60.30;99829.66;4459424;32;19991;-89
2022/08/03 02:16:52;;;;;;;;;;;;;;;20.14;60.29;99829.25;4448069;32;19989;-89
2022/08/03 02:19:17;;;;;;;;;;;;;;;20.13;60.29;99828.41;4466897;32;19975;-88
2022/08/03 02:21:43;;;;;;;;;;;;;;;20.05;60.29;99830.72;4460215;32;19988;-89
2022/08/03 02:24:08;;;;;;;;;;;;;;;20.11;60.29;99837.38;4444459;32;20017;-90
2022/08/03 02:35:43;;;;;;;;;;;;;;;20.06;60.28;99837.69;4470456;32;19988;-90
2022/08/03 02:38:09;;;;;;;;;;;;;;;19.86;60.28;99835.59;4456737;32;20032;-90
2022/08/03 02:40:35;;;;;;;;;;;;;;;19.92;60.29;99830.75;4443905;32;19984;-89
2022/08/03 02:43:04;;;;;;;;;;;;;;;20.03;60.29;99831.78;4456849;32;20018;-89
2022/08/03 02:45:30;;;;;;;;;;;;;;;20.03;60.29;99837.06;4456994;32;19989;-89
2022/08/03 02:47:56;;;;;;;;;;;;;;;19.93;60.28;99839.53;4456620;32;20040;-90
2022/08/03 02:50:21;;;;;;;;;;;;;;;19.90;60.28;99831.81;4456659;32;20016;-90
2022/08/03 02:55:43;;;;;;;;;;;;;;;19.77;60.28;99834.44;4823988;26;19992;-87
2022/08/03 02:58:08;;;;;;;;;;;;;;;19.81;60.27;99832.44;4425502;32;20360;-88
2022/08/03 03:00:34;;;;;;;;;;;;;;;19.73;60.27;99835.59;4413468;32;20031;-87
2022/08/03 03:03:00;;;;;;;;;;;;;;;19.80;60.28;99838.66;4426153;32;19992;-88
2022/08/03 03:05:26;;;;;;;;;;;;;;;19.78;60.27;99832.63;4413370;32;20033;-88
2022/08/03 03:07:51;;;;;;;;;;;;;;;19.71;60.27;99832.22;4426153;32;19986;-88
2022/08/03 03:10:17;;;;;;;;;;;;;;;19.66;60.26;99836.13;4426018;32;19986;-89
2022/08/03 03:12:42;;;;;;;;;;;;;;;19.66;60.27;99842.25;4425993;32;19993;-89
2022/08/03 03:15:08;;;;;;;;;;;;;;;19.69;60.26;99830.63;4425765;32;22348;-88
2022/08/03 03:17:33;;;;;;;;;;;;;;;19.65;60.26;99837.94;4427287;32;19985;-89
2022/08/03 03:19:58;;;;;;;;;;;;;;;19.63;60.26;99837.16;4415416;32;19998;-89
2022/08/03 03:22:23;;;;;;;;;;;;;;;19.69;60.26;99839.41;4414116;32;20031;-89
2022/08/03 03:24:50;;;;;;;;;;;;;;;19.59;60.26;99835.69;4426550;32;19961;-88
2022/08/03 03:27:15;;;;;;;;;;;;;;;19.62;60.25;99836.31;4425936;32;20035;-88
2022/08/03 03:29:41;;;;;;;;;;;;;;;19.53;60.25;99838.72;4427594;32;20320;-89
2022/08/03 03:32:06;;;;;;;;;;;;;;;19.60;60.26;99835.59;4417668;32;20017;-88
2022/08/03 03:34:31;;;;;;;;;;;;;;;19.62;60.25;99835.47;4426907;32;19965;-88
2022/08/03 03:36:56;;;;;;;;;;;;;;;19.62;60.25;99835.47;4412316;32;37548;-88
2022/08/03 03:39:22;;;;;;;;;;;;;;;19.57;60.25;99838.44;4413355;32;20009;-89
2022/08/03 03:41:47;;;;;;;;;;;;;;;19.56;60.26;99833.25;4412532;32;22395;-88
2022/08/03 03:44:12;;;;;;;;;;;;;;;19.80;60.27;99836.88;4413044;32;20360;-90
2022/08/03 03:46:37;;;;;;;;;;;;;;;19.61;60.25;99839.91;4412479;32;24358;-90
2022/08/03 03:49:04;;;;;;;;;;;;;;;19.25;60.24;99840.56;4412865;32;19995;-89
2022/08/03 03:51:29;;;;;;;;;;;;;;;19.51;60.25;99835.34;4424547;32;20025;-89
2022/08/03 03:53:55;;;;;;;;;;;;;;;19.56;60.26;99839.38;4425753;32;20004;-90
2022/08/03 03:56:21;;;;;;;;;;;;;;;19.79;60.27;99836.97;4425236;32;20445;-89
2022/08/03 03:58:46;;;;;;;;;;;;;;;19.63;60.26;99838.00;4412652;32;20043;-90
2022/08/03 04:01:11;;;;;;;;;;;;;;;19.81;60.26;99840.34;4412290;32;26843;-89
2022/08/03 04:03:36;;;;;;;;;;;;;;;19.63;60.26;99842.44;4425752;32;20017;-87
2022/08/03 04:11:40;;;;;;;;;;;;;;;20.07;60.28;99844.69;4427631;32;20034;-88
2022/08/03 04:14:09;;;;;;;;;;;;;;;20.07;60.28;99844.69;4425863;32;19992;-88
2022/08/03 04:16:36;;;;;;;;;;;;;;;20.10;60.28;99847.09;4425513;32;20011;-88
2022/08/03 04:19:02;;;;;;;;;;;;;;;20.12;60.28;99853.16;4425425;32;19985;-87
2022/08/03 04:21:27;;;;;;;;;;;;;;;20.31;60.29;99855.31;4425400;32;20253;-87
2022/08/03 04:23:53;;;;;;;;;;;;;;;20.48;60.31;99851.53;4412535;32;20253;-86
2022/08/03 04:26:20;;;;;;;;;;;;;;;20.65;60.31;99858.25;4411952;32;19997;-84
2022/08/03 04:28:45;;;;;;;;;;;;;;;20.71;60.32;99863.09;4425533;32;20356;-85
2022/08/03 04:31:11;;;;;;;;;;;;;;;20.80;60.32;99873.00;4412542;32;19989;-84
2022/08/03 04:33:37;;;;;;;;;;;;;;;20.73;60.31;99863.84;4425666;32;19965;-83
2022/08/03 04:36:03;;;;;;;;;;;;;;;20.87;60.32;99868.16;4425280;32;20027;-85
2022/08/03 04:38:29;;;;;;;;;;;;;;;21.06;60.34;99861.41;4425019;32;20067;-84
2022/08/03 04:40:55;;;;;;;;;;;;;;;21.04;60.34;99873.88;4412388;32;19977;-84
2022/08/03 04:43:20;;;;;;;;;;;;;;;21.30;60.34;99865.88;4425509;32;19965;-83
2022/08/03 04:45:45;;;;;;;;;;;;;;;21.42;60.35;99865.78;4427423;32;33262;-85
2022/08/03 04:48:11;;;;;;;;;;;;;;;21.48;60.36;99867.12;4434014;32;19988;-85
2022/08/03 04:50:36;;;;;;;;;;;;;;;21.50;60.36;99865.19;4425951;32;20005;-85
2022/08/03 04:53:02;;;;;;;;;;;;;;;21.69;60.36;99862.84;4436701;32;20598;-85
2022/08/03 04:55:27;;;;;;;;;;;;;;;21.66;60.36;99875.50;4412703;32;19989;-84
2022/08/03 04:57:52;;;;;;;;;;;;;;;21.83;60.37;99879.50;4425568;32;20016;-85
2022/08/03 05:00:18;;;;;;;;;;;;;;;22.02;60.38;99882.44;4424761;32;19973;-85
2022/08/03 05:02:43;;;;;;;;;;;;;;;22.16;60.39;99879.56;4438724;32;20027;-86
2022/08/03 05:05:08;;;;;;;;;;;;;;;22.35;60.40;99879.00;4438162;32;33980;-86
2022/08/03 05:07:33;;;;;;;;;;;;;;;22.56;60.42;99887.91;4424750;32;19990;-84
2022/08/03 05:09:59;;;;;;;;;;;;;;;22.63;60.41;99885.59;4410988;32;35702;-85
2022/08/03 05:12:24;;;;;;;;;;;;;;;22.96;60.43;99888.25;4424447;32;30555;-85
2022/08/03 05:14:49;;;;;;;;;;;;;;;23.15;60.44;99884.06;4413784;32;20257;-84
2022/08/03 05:17:14;;;;;;;;;;;;;;;23.21;60.44;99883.59;4426463;32;19985;-85
2022/08/03 05:19:40;;;;;;;;;;;;;;;23.22;60.44;99886.13;4426580;32;19992;-85
2022/08/03 05:22:05;;;;;;;;;;;;;;;23.30;60.45;99887.28;4439890;32;25073;-85
2022/08/03 05:24:30;;;;;;;;;;;;;;;23.46;60.46;99893.87;4425818;32;32182;-84
2022/08/03 05:26:55;;;;;;;;;;;;;;;23.49;60.46;99895.41;4426258;32;25328;-84
2022/08/03 05:29:20;;;;;;;;;;;;;;;23.66;60.46;99886.03;4426737;32;20006;-85
2022/08/03 05:31:46;;;;;;;;;;;;;;;23.87;60.47;99885.06;4426324;32;21688;-85
2022/08/03 05:34:11;;;;;;;;;;;;;;;23.68;60.47;99889.44;4413115;32;36766;-85
2022/08/03 05:36:36;;;;;;;;;;;;;;;23.88;60.48;99891.22;4426712;32;20037;-85
2022/08/03 05:39:01;;;;;;;;;;;;;;;23.97;60.47;99894.94;4426599;32;19982;-85
2022/08/03 05:41:26;;;;;;;;;;;;;;;23.98;60.48;99894.81;4426471;32;19997;-85
2022/08/03 05:43:52;;;;;;;;;;;;;;;24.04;60.48;99896.09;4439987;32;28854;-85
2022/08/03 05:46:17;;;;;;;;;;;;;;;24.38;60.51;99892.25;4440734;32;20238;-85
2022/08/03 05:48:43;;;;;;;;;;;;;;;24.41;60.50;99893.81;4440370;32;19978;-85
2022/08/03 05:51:09;;;;;;;;;;;;;;;24.75;60.53;99894.34;4425962;32;23570;-84
2022/08/03 05:53:35;;;;;;;;;;;;;;;24.86;60.53;99894.25;4413449;32;19993;-84
2022/08/03 05:56:00;;;;;;;;;;;;;;;24.97;60.53;99898.59;4425508;32;21124;-84
2022/08/03 05:58:25;;;;;;;;;;;;;;;25.27;60.55;99903.84;4426243;32;19973;-84
2022/08/03 06:00:50;;;;;;;;;;;;;;;25.46;60.56;99903.00;4440304;32;20311;-84
2022/08/03 06:03:16;;;;;;;;;;;;;;;25.55;60.57;99903.97;4425798;32;19993;-84
2022/08/03 06:05:41;;;;;;;;;;;;;;;25.57;60.56;99900.22;4440447;32;19989;-84
2022/08/03 06:08:06;;;;;;;;;;;;;;;25.66;60.57;99902.03;4440060;32;20388;-82
2022/08/03 06:10:32;;;;;;;;;;;;;;;25.93;60.59;99895.97;4426226;32;20022;-84
2022/08/03 06:12:57;;;;;;;;;;;;;;;25.89;60.58;99907.09;4426154;32;20037;-83
2022/08/03 06:15:22;;;;;;;;;;;;;;;26.14;60.59;99906.47;4426256;32;19981;-84
2022/08/03 06:17:48;;;;;;;;;;;;;;;26.35;60.61;99902.78;4439740;32;25321;-83
2022/08/03 06:20:14;;;;;;;;;;;;;;;26.51;60.61;99900.34;4426242;32;19974;-84
2022/08/03 06:22:39;;;;;;;;;;;;;;;26.54;60.61;99902.72;4425747;32;19997;-83
2022/08/03 06:25:06;;;;;;;;;;;;;;;26.68;60.62;99894.19;4424625;32;36150;-84
2022/08/03 06:27:31;;;;;;;;;;;;;;;26.80;60.63;99887.66;4413414;32;19981;-84
2022/08/03 06:29:56;;;;;;;;;;;;;;;26.95;60.64;99890.66;4426113;32;20035;-84
2022/08/03 06:32:21;;;;;;;;;;;;;;;27.13;60.64;99901.41;4425181;32;37573;-84
2022/08/03 06:34:47;;;;;;;;;;;;;;;27.39;60.65;99896.97;4440132;32;19982;-83
2022/08/03 06:37:12;;;;;;;;;;;;;;;27.50;60.67;99902.13;4426116;32;20317;-83
2022/08/03 06:39:37;;;;;;;;;;;;;;;27.57;60.67;99902.31;4426093;32;19977;-83
2022/08/03 06:42:03;;;;;;;;;;;;;;;27.61;60.67;99911.72;4412853;32;20016;-83
2022/08/03 06:44:28;;;;;;;;;;;;;;;27.65;60.66;99912.28;4426108;32;20000;-83
2022/08/03 06:46:53;;;;;;;;;;;;;;;27.56;60.66;99908.66;4425877;32;20099;-83
2022/08/03 06:49:18;;;;;;;;;;;;;;;27.81;60.67;99912.41;4440035;32;19973;-83
2022/08/03 06:51:44;;;;;;;;;;;;;;;27.92;60.69;99909.50;4426029;32;20542;-84
2022/08/03 06:54:09;;;;;;;;;;;;;;;28.18;60.70;99906.84;4424945;32;35273;-83
2022/08/03 06:56:34;;;;;;;;;;;;;;;28.28;60.70;99912.09;4425809;32;20227;-83
2022/08/03 06:59:00;;;;;;;;;;;;;;;28.36;60.70;99912.13;4439028;32;36750;-83
2022/08/03 07:01:25;;;;;;;;;;;;;;;28.61;60.71;99915.75;4439288;32;23236;-83
2022/08/03 07:03:50;;;;;;;;;;;;;;;28.85;60.73;99915.03;4425283;32;25356;-83
2022/08/03 07:06:15;;;;;;;;;;;;;;;28.97;60.74;99903.88;4425815;32;20017;-83
2022/08/03 07:08:40;;;;;;;;;;;;;;;29.00;60.75;99906.22;4439199;32;24009;-83
2022/08/03 07:11:06;;;;;;;;;;;;;;;29.02;60.74;99906.91;4425307;32;25820;-83
2022/08/03 07:13:32;;;;;;;;;;;;;;;29.11;60.75;99902.41;4439881;32;20017;-83
2022/08/03 07:15:57;;;;;;;;;;;;;;;29.17;60.74;99906.28;4425076;32;30975;-83
2022/08/03 07:18:22;;;;;;;;;;;;;;;29.30;60.75;99909.31;4425002;32;32237;-83
2022/08/03 07:20:47;;;;;;;;;;;;;;;29.21;60.75;99907.63;4424850;32;26982;-83
2022/08/03 07:23:13;;;;;;;;;;;;;;;29.23;60.75;99917.19;4439496;32;20056;-83
2022/08/03 07:25:38;;;;;;;;;;;;;;;29.36;60.76;99908.66;4439773;32;19992;-83
2022/08/03 07:28:03;;;;;;;;;;;;;;;29.53;60.77;99905.00;4439557;32;19962;-83
2022/08/03 07:30:28;;;;;;;;;;;;;;;29.58;60.78;99913.41;4439026;32;19986;-83
2022/08/03 07:32:54;;;;;;;;;;;;;;;29.56;60.76;99907.34;4439203;32;32154;-83
2022/08/03 07:35:19;;;;;;;;;;;;;;;29.61;60.77;99904.19;4438929;32;26922;-83
2022/08/03 07:37:44;;;;;;;;;;;;;;;29.69;60.78;99914.91;4439325;32;26137;-83
2022/08/03 07:40:09;;;;;;;;;;;;;;;29.63;60.78;99910.22;4439807;32;20007;-83
2022/08/03 07:42:35;;;;;;;;;;;;;;;29.59;60.78;99908.87;4440031;32;19988;-84
2022/08/03 07:45:00;;;;;;;;;;;;;;;29.54;60.77;99905.84;4439860;32;20015;-84
2022/08/03 07:47:25;;;;;;;;;;;;;;;29.41;60.75;99908.16;4425799;32;19974;-84
2022/08/03 07:49:51;;;;;;;;;;;;;;;29.41;60.77;99909.00;4412960;32;19997;-84
2022/08/03 07:55:00;;;;;;;;;;;;;;;29.73;60.78;99908.19;4427880;32;19988;-83
2022/08/03 07:57:25;;;;;;;;;;;;;;;30.03;60.80;99903.97;4424593;32;35937;-84
2022/08/03 07:59:50;;;;;;;;;;;;;;;30.04;60.79;99904.81;4439296;32;20718;-84
2022/08/03 08:02:15;;;;;;;;;;;;;;;30.24;60.80;99900.75;4438824;32;35062;-84
2022/08/03 08:04:41;;;;;;;;;;;;;;;30.45;60.82;99894.81;4439031;32;26582;-84
2022/08/03 08:07:06;;;;;;;;;;;;;;;30.49;60.82;99893.47;4439262;32;20479;-84
2022/08/03 08:09:31;;;;;;;;;;;;;;;30.62;60.83;99896.47;4425464;32;20307;-84
2022/08/03 08:11:56;;;;;;;;;;;;;;;30.69;60.83;99904.66;4439692;32;20293;-84
2022/08/03 08:14:22;;;;;;;;;;;;;;;30.84;60.84;99897.53;4424601;32;37088;-84
2022/08/03 08:16:48;;;;;;;;;;;;;;;30.82;60.83;99900.41;4425456;32;20027;-84
2022/08/03 08:19:15;;;;;;;;;;;;;;;31.10;60.85;99894.53;4412879;32;20001;-84
2022/08/03 08:21:40;;;;;;;;;;;;;;;31.19;60.86;99896.19;4426109;32;20008;-84
2022/08/03 08:24:05;;;;;;;;;;;;;;;31.37;60.87;99894.03;4419522;32;33442;-84
2022/08/03 08:26:31;;;;;;;;;;;;;;;31.51;60.87;99899.66;4429882;32;19962;-83
2022/08/03 08:28:56;;;;;;;;;;;;;;;31.62;60.89;99892.00;4440523;32;34536;-84
2022/08/03 08:31:21;;;;;;;;;;;;;;;31.91;60.89;99888.56;4425338;32;20329;-84
2022/08/03 08:33:46;;;;;;;;;;;;;;;32.09;60.90;99882.00;4424963;32;21864;-83
2022/08/03 08:36:12;;;;;;;;;;;;;;;32.25;60.90;99887.22;4412529;32;19982;-83
2022/08/03 08:38:37;;;;;;;;;;;;;;;32.46;60.92;99884.63;4438569;32;26737;-83
2022/08/03 08:41:02;;;;;;;;;;;;;;;32.52;60.93;99889.28;4439295;32;19981;-84
2022/08/03 08:43:27;;;;;;;;;;;;;;;32.58;60.92;99887.69;4412351;32;20370;-84
2022/08/03 08:45:53;;;;;;;;;;;;;;;32.73;60.93;99883.09;4412032;32;19984;-84
2022/08/03 08:48:20;;;;;;;;;;;;;;;32.86;60.94;99877.06;4413496;32;20005;-84
2022/08/03 08:50:45;;;;;;;;;;;;;;;33.02;60.95;99884.91;4427100;32;19993;-85
2022/08/03 08:53:10;;;;;;;;;;;;;;;33.36;60.97;99886.13;4426582;32;24654;-85
2022/08/03 08:55:35;;;;;;;;;;;;;;;33.38;60.96;99876.81;4426104;32;26543;-84
2022/08/03 08:58:01;;;;;;;;;;;;;;;33.60;60.97;99876.78;4426902;32;20009;-85
2022/08/03 09:00:26;;;;;;;;;;;;;;;33.73;60.98;99871.50;4414169;32;20005;-84
2022/08/03 09:02:51;;;;;;;;;;;;;;;34.00;60.99;99868.00;4426912;32;20298;-84
2022/08/03 09:05:17;;;;;;;;;;;;;;;34.04;61.00;99868.41;4427004;32;19996;-85
2022/08/03 09:07:42;;;;;;;;;;;;;;;34.07;61.00;99865.31;4414029;32;19993;-84
2022/08/03 09:10:08;;;;;;;;;;;;;;;34.03;60.99;99855.94;4427021;32;19997;-85
2022/08/03 09:12:37;;;;;;;;;;;;;;;34.13;61.01;99861.84;4426808;32;20332;-84
2022/08/03 09:15:34;;;;;;;;;;;;;;;34.31;61.01;99864.87;4440898;32;19976;-85
2022/08/03 09:18:00;;;;;;;;;;;;;;;34.33;61.01;99859.25;4406457;32;20313;-84
2022/08/03 09:20:26;;;;;;;;;;;;;;;34.32;61.01;99863.00;4427156;32;19985;-84
2022/08/03 09:23:03;;;;;;;;;;;;;;;34.50;61.02;99857.91;4427035;32;19977;-85
2022/08/03 09:25:35;;;;;;;;;;;;;;;34.61;61.03;99860.03;4441182;32;19970;-85
2022/08/03 09:28:09;;;;;;;;;;;;;;;34.64;61.03;99851.53;4426632;32;19993;-85
2022/08/03 09:30:35;;;;;;;;;;;;;;;34.59;61.02;99851.31;4440861;32;20369;-84
2022/08/03 09:33:01;;;;;;;;;;;;;;;34.66;61.02;99854.84;4426897;32;20034;-85
2022/08/03 09:35:27;;;;;;;;;;;;;;;34.85;61.03;99847.03;4440730;32;20030;-84
2022/08/03 09:38:11;;;;;;;;;;;;;;;34.92;61.04;99856.00;4440884;32;19989;-84
2022/08/03 09:40:36;;;;;;;;;;;;;;;34.96;61.04;99858.09;4426840;32;20173;-85
2022/08/03 09:43:01;;;;;;;;;;;;;;;35.03;61.05;99845.44;4426595;32;20365;-84
2022/08/03 09:45:27;;;;;;;;;;;;;;;34.99;61.04;99846.84;4440092;32;25395;-85
2022/08/03 09:47:52;;;;;;;;;;;;;;;35.18;61.06;99845.22;4440689;32;19978;-85
2022/08/03 09:50:17;;;;;;;;;;;;;;;35.36;61.07;99839.25;4440673;32;20019;-84
2022/08/03 09:52:43;;;;;;;;;;;;;;;35.69;61.07;99839.22;4439949;32;26180;-85
2022/08/03 09:55:12;;;;;;;;;;;;;;;36.03;61.09;99827.34;4440607;32;20275;-85
2022/08/03 09:57:37;;;;;;;;;;;;;;;36.41;61.11;99837.44;4426389;32;20001;-85
2022/08/03 10:00:04;;;;;;;;;;;;;;;36.65;61.13;99828.56;4426630;32;20236;-85
2022/08/03 10:02:30;;;;;;;;;;;;;;;36.78;61.12;99822.25;4440526;32;19988;-85
2022/08/03 10:04:55;;;;;;;;;;;;;;;36.96;61.14;99821.56;4425654;32;35830;-85
2022/08/03 10:07:20;;;;;;;;;;;;;;;36.89;61.14;99825.13;4440561;32;20008;-85
2022/08/03 10:09:52;;;;;;;;;;;;;;;37.06;61.14;99821.91;4426604;32;20250;-85
2022/08/03 10:12:17;;;;;;;;;;;;;;;37.05;61.15;99821.06;4426725;32;20036;-85
2022/08/03 10:14:44;;;;;;;;;;;;;;;36.99;61.14;99821.94;4440114;32;20022;-85
2022/08/03 10:17:09;;;;;;;;;;;;;;;37.24;61.15;99805.69;4440258;32;20000;-85
2022/08/03 10:19:35;;;;;;;;;;;;;;;37.54;61.17;99815.91;4440614;32;19993;-85
2022/08/03 10:22:01;;;;;;;;;;;;;;;37.68;61.17;99803.87;4426487;32;20001;-85
2022/08/03 10:24:27;;;;;;;;;;;;;;;37.91;61.18;99805.97;4413746;32;19969;-85
2022/08/03 10:26:52;;;;;;;;;;;;;;;38.08;61.19;99807.84;4426450;32;20032;-85
2022/08/03 10:29:20;;;;;;;;;;;;;;;38.12;61.19;99793.81;4440426;32;19992;-85
2022/08/03 10:31:45;;;;;;;;;;;;;;;37.83;61.18;99801.66;4426380;32;20443;-85
2022/08/03 10:34:14;;;;;;;;;;;;;;;37.41;61.16;99809.56;4426361;32;19991;-84
2022/08/03 10:36:39;;;;;;;;;;;;;;;37.48;61.16;99804.88;4440323;32;20368;-85
2022/08/03 10:39:04;;;;;;;;;;;;;;;37.49;61.17;99803.84;4426408;32;19986;-84
2022/08/03 10:41:31;;;;;;;;;;;;;;;37.65;61.17;99796.19;4426187;32;19988;-84
2022/08/03 10:44:02;;;;;;;;;;;;;;;37.48;61.17;99809.50;4426302;32;20306;-85
2022/08/03 10:46:27;;;;;;;;;;;;;;;37.61;61.17;99795.78;4440297;32;19999;-85
2022/08/03 10:48:53;;;;;;;;;;;;;;;37.70;61.18;99799.88;4425780;32;21645;-85
2022/08/03 10:51:18;;;;;;;;;;;;;;;37.37;61.16;99792.03;4426202;32;20003;-85
2022/08/03 10:53:44;;;;;;;;;;;;;;;37.27;61.16;99786.28;4426295;32;19974;-84
2022/08/03 10:59:12;;;;;;;;;;;;;;;37.62;61.17;99780.31;4440333;32;20669;-85
2022/08/03 11:01:50;;;;;;;;;;;;;;;37.66;61.17;99784.25;4425598;32;27520;-85
2022/08/03 11:04:16;;;;;;;;;;;;;;;37.60;61.17;99780.53;4440203;32;19974;-85
2022/08/03 11:06:41;;;;;;;;;;;;;;;37.75;61.19;99780.22;4425996;32;19989;-84
2022/08/03 11:09:15;;;;;;;;;;;;;;;37.99;61.18;99770.34;4411994;32;34580;-85
2022/08/03 11:11:42;;;;;;;;;;;;;;;38.06;61.19;99763.75;4426127;32;19982;-85
2022/08/03 11:14:14;;;;;;;;;;;;;;;38.30;61.20;99755.75;4440207;32;19977;-85
2022/08/03 11:16:40;;;;;;;;;;;;;;;38.39;61.21;99755.22;4426020;32;20043;-85
2022/08/03 11:19:06;;;;;;;;;;;;;;;38.40;61.22;99756.06;4440136;32;19985;-85
2022/08/03 11:21:46;;;;;;;;;;;;;;;38.32;61.20;99750.91;4440028;32;20015;-85
2022/08/03 11:24:32;;;;;;;;;;;;;;;38.42;61.22;99753.94;4440072;32;19969;-85
2022/08/03 11:27:16;;;;;;;;;;;;;;;38.50;61.22;99748.16;4439890;32;20020;-85
2022/08/03 11:30:00;;;;;;;;;;;;;;;38.66;61.23;99744.81;4426096;32;20004;-85
2022/08/03 11:32:42;;;;;;;;;;;;;;;38.76;61.23;99746.97;4440121;32;20011;-84
2022/08/03 11:35:10;;;;;;;;;;;;;;;38.83;61.23;99744.16;4440011;32;20367;-85
2022/08/03 11:37:35;;;;;;;;;;;;;;;38.68;61.23;99739.97;4425825;32;20047;-85
2022/08/03 11:40:00;;;;;;;;;;;;;;;38.46;61.22;99737.97;4425739;32;19986;-85
2022/08/03 11:42:27;;;;;;;;;;;;;;;38.30;61.21;99745.69;4412537;32;29065;-85
2022/08/03 11:44:53;;;;;;;;;;;;;;;37.98;61.19;99739.59;4439983;32;19977;-85
2022/08/03 11:47:22;;;;;;;;;;;;;;;37.71;61.18;99740.94;4439762;32;20028;-85
2022/08/03 11:49:48;;;;;;;;;;;;;;;37.33;61.16;99747.38;4425919;32;19981;-84
2022/08/03 11:52:13;;;;;;;;;;;;;;;37.30;61.16;99747.00;4425876;32;20027;-84
2022/08/03 11:54:39;;;;;;;;;;;;;;;37.41;61.16;99738.97;4425708;32;20061;-85
2022/08/03 11:57:04;;;;;;;;;;;;;;;37.61;61.18;99741.44;4439433;32;20028;-85
2022/08/03 11:59:33;;;;;;;;;;;;;;;37.65;61.18;99734.53;4425696;32;19973;-84
2022/08/03 12:02:05;;;;;;;;;;;;;;;37.66;61.17;99735.38;4412920;32;19989;-85
2022/08/03 12:04:30;;;;;;;;;;;;;;;37.40;61.17;99731.88;4439713;32;20255;-84
2022/08/03 12:06:59;;;;;;;;;;;;;;;37.62;61.18;99728.69;4425343;32;25403;-84
2022/08/03 12:09:24;;;;;;;;;;;;;;;37.87;61.19;99734.94;4426015;32;19994;-84
2022/08/03 12:11:50;;;;;;;;;;;;;;;38.03;61.20;99719.91;4446116;32;36063;-84
2022/08/03 12:14:15;;;;;;;;;;;;;;;38.24;61.20;99726.78;4433165;32;19969;-84
2022/08/03 12:16:40;;;;;;;;;;;;;;;38.22;61.20;99727.00;4420006;32;20020;-83
2022/08/03 12:19:06;;;;;;;;;;;;;;;38.04;61.20;99719.66;4430814;32;20270;-84
2022/08/03 12:21:32;;;;;;;;;;;;;;;38.28;61.21;99723.34;4439716;32;19982;-84
2022/08/03 12:24:01;;;;;;;;;;;;;;;38.49;61.22;99724.75;4439610;32;20015;-84
2022/08/03 12:26:26;;;;;;;;;;;;;;;38.37;61.21;99723.88;4425640;32;20050;-84
2022/08/03 12:28:52;;;;;;;;;;;;;;;38.12;61.20;99717.72;4412895;32;20314;-84
2022/08/03 12:31:17;;;;;;;;;;;;;;;37.96;61.19;99722.69;4438946;32;28817;-84
2022/08/03 12:34:00;;;;;;;;;;;;;;;38.00;61.19;99712.19;4425579;32;19985;-84
2022/08/03 12:36:26;;;;;;;;;;;;;;;37.91;61.19;99716.28;4439550;32;19989;-84
2022/08/03 12:39:10;;;;;;;;;;;;;;;38.02;61.20;99710.91;4425449;32;20224;-84
2022/08/03 12:41:36;;;;;;;;;;;;;;;38.27;61.21;99710.00;4439521;32;20048;-84
2022/08/03 12:44:05;;;;;;;;;;;;;;;38.50;61.22;99704.63;4425339;32;19970;-84
2022/08/03 12:46:33;;;;;;;;;;;;;;;38.62;61.22;99705.53;4439342;32;19981;-84
2022/08/03 12:49:08;;;;;;;;;;;;;;;38.56;61.22;99703.69;4425317;32;20095;-83
2022/08/03 12:51:37;;;;;;;;;;;;;;;38.64;61.22;99697.97;4439107;32;19996;-84
2022/08/03 12:54:03;;;;;;;;;;;;;;;38.79;61.23;99696.69;4425019;32;20049;-84
2022/08/03 12:56:28;;;;;;;;;;;;;;;38.78;61.23;99698.56;4423182;32;19990;-85
2022/08/03 12:58:53;;;;;;;;;;;;;;;38.53;61.22;99698.72;4424953;32;20254;-85
2022/08/03 13:01:21;;;;;;;;;;;;;;;38.51;61.22;99692.69;4439080;32;19985;-84
2022/08/03 13:03:47;;;;;;;;;;;;;;;38.54;61.22;99694.13;4438858;32;19962;-84
2022/08/03 13:06:16;;;;;;;;;;;;;;;38.67;61.23;99685.78;4424896;32;20004;-84
2022/08/03 13:08:41;;;;;;;;;;;;;;;38.82;61.24;99685.34;4424944;32;19992;-84